sensor_id;sensor_type;location;lat;lon;timestamp;P1;durP1;ratioP1;P2;durP2;ratioP2
51943;SDS011;37969;53.132;6.370;2023-12-28T00:00:19;4.45;;;3.75;;
51943;SDS011;37969;53.132;6.370;2023-12-28T00:02:46;7.32;;;3.80;;
51943;SDS011;37969;53.132;6.370;2023-12-28T00:05:13;4.88;;;3.90;;
51943;SDS011;37969;53.132;6.370;2023-12-28T00:07:39;5.97;;;3.72;;
51943;SDS011;37969;53.132;6.370;2023-12-28T00:10:05;7.60;;;3.90;;
51943;SDS011;37969;53.132;6.370;2023-12-28T00:12:32;5.28;;;4.13;;
51943;SDS011;37969;53.132;6.370;2023-12-28T00:15:00;3.75;;;3.42;;
51943;SDS011;37969;53.132;6.370;2023-12-28T00:17:27;6.03;;;3.70;;
51943;SDS011;37969;53.132;6.370;2023-12-28T00:19:54;5.65;;;3.95;;
51943;SDS011;37969;53.132;6.370;2023-12-28T00:22:24;7.28;;;4.43;;
51943;SDS011;37969;53.132;6.370;2023-12-28T00:24:50;6.47;;;3.90;;
51943;SDS011;37969;53.132;6.370;2023-12-28T00:27:19;6.90;;;3.88;;
51943;SDS011;37969;53.132;6.370;2023-12-28T00:32:16;7.85;;;3.78;;
51943;SDS011;37969;53.132;6.370;2023-12-28T00:34:42;8.75;;;4.18;;
51943;SDS011;37969;53.132;6.370;2023-12-28T00:37:09;9.57;;;3.80;;
51943;SDS011;37969;53.132;6.370;2023-12-28T00:39:37;6.40;;;3.40;;
51943;SDS011;37969;53.132;6.370;2023-12-28T00:42:05;6.72;;;3.90;;
51943;SDS011;37969;53.132;6.370;2023-12-28T00:44:34;6.78;;;4.07;;
51943;SDS011;37969;53.132;6.370;2023-12-28T00:47:01;7.05;;;4.30;;
51943;SDS011;37969;53.132;6.370;2023-12-28T00:49:28;10.55;;;3.75;;
51943;SDS011;37969;53.132;6.370;2023-12-28T00:51:55;11.20;;;3.75;;
51943;SDS011;37969;53.132;6.370;2023-12-28T00:54:24;7.38;;;4.30;;
51943;SDS011;37969;53.132;6.370;2023-12-28T00:56:53;11.10;;;3.53;;
51943;SDS011;37969;53.132;6.370;2023-12-28T00:59:23;11.43;;;4.05;;
51943;SDS011;37969;53.132;6.370;2023-12-28T01:01:55;10.68;;;4.10;;
51943;SDS011;37969;53.132;6.370;2023-12-28T01:04:22;11.45;;;3.50;;
51943;SDS011;37969;53.132;6.370;2023-12-28T01:06:49;13.98;;;4.45;;
51943;SDS011;37969;53.132;6.370;2023-12-28T01:09:15;8.35;;;3.72;;
51943;SDS011;37969;53.132;6.370;2023-12-28T01:11:44;14.77;;;4.97;;
51943;SDS011;37969;53.132;6.370;2023-12-28T01:14:10;12.27;;;4.43;;
51943;SDS011;37969;53.132;6.370;2023-12-28T01:16:37;19.55;;;4.75;;
51943;SDS011;37969;53.132;6.370;2023-12-28T01:19:05;10.45;;;3.97;;
51943;SDS011;37969;53.132;6.370;2023-12-28T01:21:31;12.68;;;3.75;;
51943;SDS011;37969;53.132;6.370;2023-12-28T01:23:58;8.70;;;3.90;;
51943;SDS011;37969;53.132;6.370;2023-12-28T01:26:25;17.38;;;3.83;;
51943;SDS011;37969;53.132;6.370;2023-12-28T01:28:52;10.30;;;3.90;;
51943;SDS011;37969;53.132;6.370;2023-12-28T01:31:22;10.82;;;3.78;;
51943;SDS011;37969;53.132;6.370;2023-12-28T01:33:48;12.10;;;3.72;;
51943;SDS011;37969;53.132;6.370;2023-12-28T01:36:17;13.40;;;3.97;;
51943;SDS011;37969;53.132;6.370;2023-12-28T01:38:45;16.35;;;4.85;;
51943;SDS011;37969;53.132;6.370;2023-12-28T01:41:14;13.95;;;4.82;;
51943;SDS011;37969;53.132;6.370;2023-12-28T01:43:41;12.68;;;4.38;;
51943;SDS011;37969;53.132;6.370;2023-12-28T01:46:10;11.95;;;3.70;;
51943;SDS011;37969;53.132;6.370;2023-12-28T01:48:45;23.92;;;4.75;;
51943;SDS011;37969;53.132;6.370;2023-12-28T01:51:15;13.15;;;4.40;;
51943;SDS011;37969;53.132;6.370;2023-12-28T01:53:44;13.25;;;4.30;;
51943;SDS011;37969;53.132;6.370;2023-12-28T01:58:40;13.63;;;4.38;;
51943;SDS011;37969;53.132;6.370;2023-12-28T02:01:10;15.75;;;4.18;;
51943;SDS011;37969;53.132;6.370;2023-12-28T02:03:38;16.40;;;4.10;;
51943;SDS011;37969;53.132;6.370;2023-12-28T02:06:09;20.00;;;4.30;;
51943;SDS011;37969;53.132;6.370;2023-12-28T02:08:36;14.45;;;4.32;;
51943;SDS011;37969;53.132;6.370;2023-12-28T02:11:08;14.43;;;4.47;;
51943;SDS011;37969;53.132;6.370;2023-12-28T02:13:34;14.43;;;3.80;;
51943;SDS011;37969;53.132;6.370;2023-12-28T02:16:03;15.43;;;3.90;;
51943;SDS011;37969;53.132;6.370;2023-12-28T02:18:34;19.20;;;4.22;;
51943;SDS011;37969;53.132;6.370;2023-12-28T02:21:03;14.30;;;3.83;;
51943;SDS011;37969;53.132;6.370;2023-12-28T02:23:31;16.65;;;4.18;;
51943;SDS011;37969;53.132;6.370;2023-12-28T02:25:58;14.68;;;3.63;;
51943;SDS011;37969;53.132;6.370;2023-12-28T02:28:25;14.15;;;3.90;;
51943;SDS011;37969;53.132;6.370;2023-12-28T02:30:53;16.85;;;4.40;;
51943;SDS011;37969;53.132;6.370;2023-12-28T02:33:25;12.70;;;3.67;;
51943;SDS011;37969;53.132;6.370;2023-12-28T02:35:57;17.67;;;4.18;;
51943;SDS011;37969;53.132;6.370;2023-12-28T02:38:24;13.93;;;4.20;;
51943;SDS011;37969;53.132;6.370;2023-12-28T02:40:53;16.13;;;3.78;;
51943;SDS011;37969;53.132;6.370;2023-12-28T02:43:24;10.85;;;3.80;;
51943;SDS011;37969;53.132;6.370;2023-12-28T02:45:55;15.48;;;3.95;;
51943;SDS011;37969;53.132;6.370;2023-12-28T02:48:24;17.83;;;4.65;;
51943;SDS011;37969;53.132;6.370;2023-12-28T02:50:51;15.82;;;3.50;;
51943;SDS011;37969;53.132;6.370;2023-12-28T02:53:17;14.75;;;3.55;;
51943;SDS011;37969;53.132;6.370;2023-12-28T02:55:44;15.30;;;4.05;;
51943;SDS011;37969;53.132;6.370;2023-12-28T02:58:12;17.00;;;4.18;;
51943;SDS011;37969;53.132;6.370;2023-12-28T03:00:39;18.15;;;4.00;;
51943;SDS011;37969;53.132;6.370;2023-12-28T03:03:08;13.52;;;3.97;;
51943;SDS011;37969;53.132;6.370;2023-12-28T03:05:35;17.98;;;4.10;;
51943;SDS011;37969;53.132;6.370;2023-12-28T03:08:04;21.25;;;3.92;;
51943;SDS011;37969;53.132;6.370;2023-12-28T03:10:31;18.83;;;4.53;;
51943;SDS011;37969;53.132;6.370;2023-12-28T03:12:58;18.45;;;3.92;;
51943;SDS011;37969;53.132;6.370;2023-12-28T03:15:26;12.95;;;3.47;;
51943;SDS011;37969;53.132;6.370;2023-12-28T03:17:53;14.60;;;3.20;;
51943;SDS011;37969;53.132;6.370;2023-12-28T03:20:21;8.60;;;3.50;;
51943;SDS011;37969;53.132;6.370;2023-12-28T03:22:49;15.25;;;3.22;;
51943;SDS011;37969;53.132;6.370;2023-12-28T03:25:15;14.63;;;3.47;;
51943;SDS011;37969;53.132;6.370;2023-12-28T03:27:41;13.73;;;4.00;;
51943;SDS011;37969;53.132;6.370;2023-12-28T03:30:09;10.07;;;3.35;;
51943;SDS011;37969;53.132;6.370;2023-12-28T03:32:37;12.80;;;3.53;;
51943;SDS011;37969;53.132;6.370;2023-12-28T03:35:04;15.60;;;3.63;;
51943;SDS011;37969;53.132;6.370;2023-12-28T03:37:32;16.90;;;3.47;;
51943;SDS011;37969;53.132;6.370;2023-12-28T03:39:58;21.52;;;3.42;;
51943;SDS011;37969;53.132;6.370;2023-12-28T03:42:27;13.45;;;2.72;;
51943;SDS011;37969;53.132;6.370;2023-12-28T03:44:54;18.90;;;3.95;;
51943;SDS011;37969;53.132;6.370;2023-12-28T03:47:22;9.65;;;2.92;;
51943;SDS011;37969;53.132;6.370;2023-12-28T03:49:49;13.32;;;2.90;;
51943;SDS011;37969;53.132;6.370;2023-12-28T03:52:16;17.98;;;3.20;;
51943;SDS011;37969;53.132;6.370;2023-12-28T03:54:45;12.63;;;3.50;;
51943;SDS011;37969;53.132;6.370;2023-12-28T03:57:14;11.38;;;3.03;;
51943;SDS011;37969;53.132;6.370;2023-12-28T03:59:40;17.67;;;3.92;;
51943;SDS011;37969;53.132;6.370;2023-12-28T04:02:09;13.30;;;3.55;;
51943;SDS011;37969;53.132;6.370;2023-12-28T04:04:35;14.95;;;3.10;;
51943;SDS011;37969;53.132;6.370;2023-12-28T04:07:03;20.80;;;3.78;;
51943;SDS011;37969;53.132;6.370;2023-12-28T04:09:32;15.77;;;3.58;;
51943;SDS011;37969;53.132;6.370;2023-12-28T04:11:58;13.60;;;3.53;;
51943;SDS011;37969;53.132;6.370;2023-12-28T04:14:25;14.63;;;3.45;;
51943;SDS011;37969;53.132;6.370;2023-12-28T04:16:51;21.17;;;3.70;;
51943;SDS011;37969;53.132;6.370;2023-12-28T04:19:17;13.63;;;3.10;;
51943;SDS011;37969;53.132;6.370;2023-12-28T04:21:46;13.55;;;3.03;;
51943;SDS011;37969;53.132;6.370;2023-12-28T04:24:12;16.70;;;3.35;;
51943;SDS011;37969;53.132;6.370;2023-12-28T04:26:40;11.82;;;3.03;;
51943;SDS011;37969;53.132;6.370;2023-12-28T04:29:07;15.93;;;2.92;;
51943;SDS011;37969;53.132;6.370;2023-12-28T04:31:33;15.70;;;4.20;;
51943;SDS011;37969;53.132;6.370;2023-12-28T04:33:59;17.67;;;3.30;;
51943;SDS011;37969;53.132;6.370;2023-12-28T04:36:27;13.88;;;2.75;;
51943;SDS011;37969;53.132;6.370;2023-12-28T04:38:54;11.02;;;2.97;;
51943;SDS011;37969;53.132;6.370;2023-12-28T04:41:23;13.93;;;3.92;;
51943;SDS011;37969;53.132;6.370;2023-12-28T04:43:50;16.98;;;3.35;;
51943;SDS011;37969;53.132;6.370;2023-12-28T04:46:19;18.65;;;3.47;;
51943;SDS011;37969;53.132;6.370;2023-12-28T04:48:46;16.98;;;3.10;;
51943;SDS011;37969;53.132;6.370;2023-12-28T04:51:15;18.85;;;3.55;;
51943;SDS011;37969;53.132;6.370;2023-12-28T04:53:44;14.90;;;3.10;;
51943;SDS011;37969;53.132;6.370;2023-12-28T04:56:10;11.73;;;2.78;;
51943;SDS011;37969;53.132;6.370;2023-12-28T04:58:37;16.88;;;3.00;;
51943;SDS011;37969;53.132;6.370;2023-12-28T05:01:03;20.02;;;3.50;;
51943;SDS011;37969;53.132;6.370;2023-12-28T05:03:30;18.80;;;3.55;;
51943;SDS011;37969;53.132;6.370;2023-12-28T05:05:58;19.88;;;3.05;;
51943;SDS011;37969;53.132;6.370;2023-12-28T05:08:25;19.17;;;3.30;;
51943;SDS011;37969;53.132;6.370;2023-12-28T05:10:52;27.23;;;3.22;;
51943;SDS011;37969;53.132;6.370;2023-12-28T05:13:19;14.40;;;3.85;;
51943;SDS011;37969;53.132;6.370;2023-12-28T05:15:45;20.42;;;3.92;;
51943;SDS011;37969;53.132;6.370;2023-12-28T05:18:13;19.40;;;3.60;;
51943;SDS011;37969;53.132;6.370;2023-12-28T05:20:39;15.63;;;3.50;;
51943;SDS011;37969;53.132;6.370;2023-12-28T05:23:05;18.17;;;3.28;;
51943;SDS011;37969;53.132;6.370;2023-12-28T05:25:32;17.73;;;3.55;;
51943;SDS011;37969;53.132;6.370;2023-12-28T05:27:58;20.70;;;3.90;;
51943;SDS011;37969;53.132;6.370;2023-12-28T05:30:28;22.08;;;3.33;;
51943;SDS011;37969;53.132;6.370;2023-12-28T05:32:54;12.07;;;2.63;;
51943;SDS011;37969;53.132;6.370;2023-12-28T05:35:21;15.13;;;3.60;;
51943;SDS011;37969;53.132;6.370;2023-12-28T05:37:48;14.85;;;2.95;;
51943;SDS011;37969;53.132;6.370;2023-12-28T05:40:14;19.38;;;3.70;;
51943;SDS011;37969;53.132;6.370;2023-12-28T05:42:40;21.83;;;3.63;;
51943;SDS011;37969;53.132;6.370;2023-12-28T05:45:07;16.02;;;3.30;;
51943;SDS011;37969;53.132;6.370;2023-12-28T05:47:35;15.65;;;3.22;;
51943;SDS011;37969;53.132;6.370;2023-12-28T05:50:01;18.50;;;3.60;;
51943;SDS011;37969;53.132;6.370;2023-12-28T05:52:28;15.27;;;3.28;;
51943;SDS011;37969;53.132;6.370;2023-12-28T05:54:54;20.42;;;3.42;;
51943;SDS011;37969;53.132;6.370;2023-12-28T05:57:23;20.75;;;4.18;;
51943;SDS011;37969;53.132;6.370;2023-12-28T05:59:56;25.55;;;4.10;;
51943;SDS011;37969;53.132;6.370;2023-12-28T06:02:26;24.02;;;3.90;;
51943;SDS011;37969;53.132;6.370;2023-12-28T06:04:53;17.60;;;3.40;;
51943;SDS011;37969;53.132;6.370;2023-12-28T06:07:21;14.80;;;4.13;;
51943;SDS011;37969;53.132;6.370;2023-12-28T06:09:54;20.98;;;3.50;;
51943;SDS011;37969;53.132;6.370;2023-12-28T06:12:21;17.63;;;3.58;;
51943;SDS011;37969;53.132;6.370;2023-12-28T06:14:48;20.95;;;3.92;;
51943;SDS011;37969;53.132;6.370;2023-12-28T06:17:15;21.67;;;3.80;;
51943;SDS011;37969;53.132;6.370;2023-12-28T06:19:44;21.50;;;3.58;;
51943;SDS011;37969;53.132;6.370;2023-12-28T06:22:10;19.33;;;3.38;;
51943;SDS011;37969;53.132;6.370;2023-12-28T06:24:37;21.08;;;4.10;;
51943;SDS011;37969;53.132;6.370;2023-12-28T06:27:05;21.33;;;3.70;;
51943;SDS011;37969;53.132;6.370;2023-12-28T06:29:31;22.88;;;4.50;;
51943;SDS011;37969;53.132;6.370;2023-12-28T06:32:03;18.45;;;3.45;;
51943;SDS011;37969;53.132;6.370;2023-12-28T06:34:30;26.83;;;4.35;;
51943;SDS011;37969;53.132;6.370;2023-12-28T06:36:58;18.70;;;3.40;;
51943;SDS011;37969;53.132;6.370;2023-12-28T06:39:26;18.80;;;4.10;;
51943;SDS011;37969;53.132;6.370;2023-12-28T06:41:55;21.70;;;3.63;;
51943;SDS011;37969;53.132;6.370;2023-12-28T06:44:23;18.92;;;3.75;;
51943;SDS011;37969;53.132;6.370;2023-12-28T06:46:50;21.48;;;5.07;;
51943;SDS011;37969;53.132;6.370;2023-12-28T06:49:18;29.10;;;4.45;;
51943;SDS011;37969;53.132;6.370;2023-12-28T06:51:49;21.67;;;3.75;;
51943;SDS011;37969;53.132;6.370;2023-12-28T06:54:16;19.05;;;3.80;;
51943;SDS011;37969;53.132;6.370;2023-12-28T06:56:44;18.33;;;4.13;;
51943;SDS011;37969;53.132;6.370;2023-12-28T06:59:10;17.52;;;3.45;;
51943;SDS011;37969;53.132;6.370;2023-12-28T07:01:37;24.25;;;3.25;;
51943;SDS011;37969;53.132;6.370;2023-12-28T07:04:05;17.27;;;3.28;;
51943;SDS011;37969;53.132;6.370;2023-12-28T07:06:33;24.55;;;4.15;;
51943;SDS011;37969;53.132;6.370;2023-12-28T07:09:00;22.70;;;4.40;;
51943;SDS011;37969;53.132;6.370;2023-12-28T07:11:27;20.17;;;3.90;;
51943;SDS011;37969;53.132;6.370;2023-12-28T07:13:54;22.08;;;3.20;;
51943;SDS011;37969;53.132;6.370;2023-12-28T07:16:22;17.52;;;3.72;;
51943;SDS011;37969;53.132;6.370;2023-12-28T07:18:48;28.60;;;4.20;;
51943;SDS011;37969;53.132;6.370;2023-12-28T07:21:14;29.33;;;3.92;;
51943;SDS011;37969;53.132;6.370;2023-12-28T07:23:40;30.27;;;4.30;;
51943;SDS011;37969;53.132;6.370;2023-12-28T07:26:06;27.25;;;5.65;;
51943;SDS011;37969;53.132;6.370;2023-12-28T07:28:33;26.48;;;4.38;;
51943;SDS011;37969;53.132;6.370;2023-12-28T07:31:00;26.55;;;5.03;;
51943;SDS011;37969;53.132;6.370;2023-12-28T07:33:27;24.30;;;3.83;;
51943;SDS011;37969;53.132;6.370;2023-12-28T07:35:56;36.38;;;3.88;;
51943;SDS011;37969;53.132;6.370;2023-12-28T07:38:24;29.73;;;5.38;;
51943;SDS011;37969;53.132;6.370;2023-12-28T07:40:51;26.63;;;5.00;;
51943;SDS011;37969;53.132;6.370;2023-12-28T07:43:20;30.45;;;4.05;;
51943;SDS011;37969;53.132;6.370;2023-12-28T07:45:47;31.70;;;6.38;;
51943;SDS011;37969;53.132;6.370;2023-12-28T07:48:16;29.20;;;4.85;;
51943;SDS011;37969;53.132;6.370;2023-12-28T07:50:43;32.22;;;4.93;;
51943;SDS011;37969;53.132;6.370;2023-12-28T07:53:11;28.38;;;4.95;;
51943;SDS011;37969;53.132;6.370;2023-12-28T07:55:38;30.95;;;5.15;;
51943;SDS011;37969;53.132;6.370;2023-12-28T07:58:04;31.35;;;5.57;;
51943;SDS011;37969;53.132;6.370;2023-12-28T08:00:30;32.50;;;5.70;;
51943;SDS011;37969;53.132;6.370;2023-12-28T08:03:01;37.25;;;4.82;;
51943;SDS011;37969;53.132;6.370;2023-12-28T08:05:28;25.58;;;4.22;;
51943;SDS011;37969;53.132;6.370;2023-12-28T08:07:55;25.23;;;4.57;;
51943;SDS011;37969;53.132;6.370;2023-12-28T08:10:22;31.92;;;5.00;;
51943;SDS011;37969;53.132;6.370;2023-12-28T08:12:49;33.30;;;4.90;;
51943;SDS011;37969;53.132;6.370;2023-12-28T08:15:16;32.90;;;5.85;;
51943;SDS011;37969;53.132;6.370;2023-12-28T08:17:42;38.75;;;5.70;;
51943;SDS011;37969;53.132;6.370;2023-12-28T08:20:10;30.00;;;4.88;;
51943;SDS011;37969;53.132;6.370;2023-12-28T08:22:36;31.10;;;4.68;;
51943;SDS011;37969;53.132;6.370;2023-12-28T08:25:02;31.48;;;5.97;;
51943;SDS011;37969;53.132;6.370;2023-12-28T08:27:30;31.08;;;5.80;;
51943;SDS011;37969;53.132;6.370;2023-12-28T08:29:57;36.72;;;6.60;;
51943;SDS011;37969;53.132;6.370;2023-12-28T08:32:25;32.65;;;5.13;;
51943;SDS011;37969;53.132;6.370;2023-12-28T08:34:54;30.08;;;4.93;;
51943;SDS011;37969;53.132;6.370;2023-12-28T08:37:23;37.95;;;5.03;;
51943;SDS011;37969;53.132;6.370;2023-12-28T08:39:52;45.23;;;8.20;;
51943;SDS011;37969;53.132;6.370;2023-12-28T08:42:21;40.63;;;6.00;;
51943;SDS011;37969;53.132;6.370;2023-12-28T08:44:50;33.15;;;5.53;;
51943;SDS011;37969;53.132;6.370;2023-12-28T08:47:17;31.95;;;5.95;;
51943;SDS011;37969;53.132;6.370;2023-12-28T08:49:43;31.27;;;5.70;;
51943;SDS011;37969;53.132;6.370;2023-12-28T08:52:10;36.30;;;5.70;;
51943;SDS011;37969;53.132;6.370;2023-12-28T08:54:37;34.08;;;6.68;;
51943;SDS011;37969;53.132;6.370;2023-12-28T08:57:04;35.97;;;6.20;;
51943;SDS011;37969;53.132;6.370;2023-12-28T08:59:31;33.00;;;6.03;;
51943;SDS011;37969;53.132;6.370;2023-12-28T09:01:59;33.55;;;5.60;;
51943;SDS011;37969;53.132;6.370;2023-12-28T09:04:30;36.65;;;7.70;;
51943;SDS011;37969;53.132;6.370;2023-12-28T09:06:59;39.10;;;6.05;;
51943;SDS011;37969;53.132;6.370;2023-12-28T09:09:27;31.08;;;5.90;;
51943;SDS011;37969;53.132;6.370;2023-12-28T09:11:54;27.60;;;5.38;;
51943;SDS011;37969;53.132;6.370;2023-12-28T09:14:22;37.33;;;5.97;;
51943;SDS011;37969;53.132;6.370;2023-12-28T09:16:50;38.35;;;6.15;;
51943;SDS011;37969;53.132;6.370;2023-12-28T09:19:18;30.95;;;5.28;;
51943;SDS011;37969;53.132;6.370;2023-12-28T09:21:48;32.08;;;4.50;;
51943;SDS011;37969;53.132;6.370;2023-12-28T09:26:44;32.83;;;5.35;;
51943;SDS011;37969;53.132;6.370;2023-12-28T09:29:12;32.33;;;5.65;;
51943;SDS011;37969;53.132;6.370;2023-12-28T09:31:40;37.10;;;6.10;;
51943;SDS011;37969;53.132;6.370;2023-12-28T09:34:07;33.70;;;5.70;;
51943;SDS011;37969;53.132;6.370;2023-12-28T09:36:35;29.77;;;5.80;;
51943;SDS011;37969;53.132;6.370;2023-12-28T09:41:35;39.63;;;5.80;;
51943;SDS011;37969;53.132;6.370;2023-12-28T09:44:07;34.40;;;5.03;;
51943;SDS011;37969;53.132;6.370;2023-12-28T09:46:36;35.65;;;6.57;;
51943;SDS011;37969;53.132;6.370;2023-12-28T09:49:04;35.33;;;5.38;;
51943;SDS011;37969;53.132;6.370;2023-12-28T09:51:31;29.58;;;5.38;;
51943;SDS011;37969;53.132;6.370;2023-12-28T09:54:00;31.10;;;5.10;;
51943;SDS011;37969;53.132;6.370;2023-12-28T09:56:30;36.35;;;6.00;;
51943;SDS011;37969;53.132;6.370;2023-12-28T09:58:57;35.47;;;6.18;;
51943;SDS011;37969;53.132;6.370;2023-12-28T10:01:24;36.85;;;5.88;;
51943;SDS011;37969;53.132;6.370;2023-12-28T10:03:51;41.70;;;5.53;;
51943;SDS011;37969;53.132;6.370;2023-12-28T10:06:18;38.03;;;5.63;;
51943;SDS011;37969;53.132;6.370;2023-12-28T10:08:47;29.60;;;5.00;;
51943;SDS011;37969;53.132;6.370;2023-12-28T10:11:15;33.65;;;5.93;;
51943;SDS011;37969;53.132;6.370;2023-12-28T10:13:43;29.38;;;6.28;;
51943;SDS011;37969;53.132;6.370;2023-12-28T10:16:12;37.33;;;5.07;;
51943;SDS011;37969;53.132;6.370;2023-12-28T10:18:41;32.15;;;5.30;;
51943;SDS011;37969;53.132;6.370;2023-12-28T10:23:35;34.65;;;5.47;;
51943;SDS011;37969;53.132;6.370;2023-12-28T10:26:03;27.70;;;4.93;;
51943;SDS011;37969;53.132;6.370;2023-12-28T10:28:31;33.15;;;5.75;;
51943;SDS011;37969;53.132;6.370;2023-12-28T10:30:58;31.98;;;4.50;;
51943;SDS011;37969;53.132;6.370;2023-12-28T10:33:28;30.52;;;5.50;;
51943;SDS011;37969;53.132;6.370;2023-12-28T10:36:05;29.70;;;5.15;;
51943;SDS011;37969;53.132;6.370;2023-12-28T10:38:35;26.33;;;4.80;;
51943;SDS011;37969;53.132;6.370;2023-12-28T10:41:06;20.13;;;4.30;;
51943;SDS011;37969;53.132;6.370;2023-12-28T10:46:25;31.88;;;5.47;;
51943;SDS011;37969;53.132;6.370;2023-12-28T10:48:57;31.70;;;4.68;;
51943;SDS011;37969;53.132;6.370;2023-12-28T10:51:24;28.65;;;4.95;;
51943;SDS011;37969;53.132;6.370;2023-12-28T10:53:59;31.40;;;5.35;;
51943;SDS011;37969;53.132;6.370;2023-12-28T10:56:41;22.52;;;4.78;;
51943;SDS011;37969;53.132;6.370;2023-12-28T11:01:42;29.70;;;5.13;;
51943;SDS011;37969;53.132;6.370;2023-12-28T11:04:19;26.48;;;5.38;;
51943;SDS011;37969;53.132;6.370;2023-12-28T11:06:48;24.83;;;5.55;;
51943;SDS011;37969;53.132;6.370;2023-12-28T11:09:15;27.50;;;4.68;;
51943;SDS011;37969;53.132;6.370;2023-12-28T11:11:44;37.03;;;5.40;;
51943;SDS011;37969;53.132;6.370;2023-12-28T11:14:12;37.50;;;5.13;;
51943;SDS011;37969;53.132;6.370;2023-12-28T11:16:41;26.02;;;4.65;;
51943;SDS011;37969;53.132;6.370;2023-12-28T11:19:07;29.17;;;5.22;;
51943;SDS011;37969;53.132;6.370;2023-12-28T11:21:34;28.05;;;5.47;;
51943;SDS011;37969;53.132;6.370;2023-12-28T11:24:00;32.78;;;5.55;;
51943;SDS011;37969;53.132;6.370;2023-12-28T11:26:27;23.33;;;4.18;;
51943;SDS011;37969;53.132;6.370;2023-12-28T11:29:00;35.17;;;5.32;;
51943;SDS011;37969;53.132;6.370;2023-12-28T11:31:26;28.48;;;5.60;;
51943;SDS011;37969;53.132;6.370;2023-12-28T11:33:53;24.00;;;4.18;;
51943;SDS011;37969;53.132;6.370;2023-12-28T11:36:22;24.85;;;4.35;;
51943;SDS011;37969;53.132;6.370;2023-12-28T11:38:50;33.50;;;5.50;;
51943;SDS011;37969;53.132;6.370;2023-12-28T11:41:20;27.92;;;4.60;;
51943;SDS011;37969;53.132;6.370;2023-12-28T11:43:53;26.85;;;4.35;;
51943;SDS011;37969;53.132;6.370;2023-12-28T11:46:22;27.30;;;4.97;;
51943;SDS011;37969;53.132;6.370;2023-12-28T11:48:48;29.75;;;5.07;;
51943;SDS011;37969;53.132;6.370;2023-12-28T11:51:16;30.15;;;5.15;;
51943;SDS011;37969;53.132;6.370;2023-12-28T11:53:43;32.00;;;5.60;;
51943;SDS011;37969;53.132;6.370;2023-12-28T11:56:14;30.23;;;5.10;;
51943;SDS011;37969;53.132;6.370;2023-12-28T11:58:42;31.33;;;4.20;;
51943;SDS011;37969;53.132;6.370;2023-12-28T12:01:11;26.33;;;3.75;;
51943;SDS011;37969;53.132;6.370;2023-12-28T12:03:37;31.23;;;4.20;;
51943;SDS011;37969;53.132;6.370;2023-12-28T12:06:05;30.15;;;5.28;;
51943;SDS011;37969;53.132;6.370;2023-12-28T12:08:34;33.10;;;4.80;;
51943;SDS011;37969;53.132;6.370;2023-12-28T12:11:05;41.55;;;6.90;;
51943;SDS011;37969;53.132;6.370;2023-12-28T12:13:34;34.15;;;4.50;;
51943;SDS011;37969;53.132;6.370;2023-12-28T12:16:02;26.85;;;5.50;;
51943;SDS011;37969;53.132;6.370;2023-12-28T12:18:31;30.83;;;5.47;;
51943;SDS011;37969;53.132;6.370;2023-12-28T12:20:59;40.50;;;5.93;;
51943;SDS011;37969;53.132;6.370;2023-12-28T12:23:25;35.90;;;5.22;;
51943;SDS011;37969;53.132;6.370;2023-12-28T12:25:54;35.58;;;5.65;;
51943;SDS011;37969;53.132;6.370;2023-12-28T12:28:21;27.25;;;4.63;;
51943;SDS011;37969;53.132;6.370;2023-12-28T12:30:50;32.75;;;4.43;;
51943;SDS011;37969;53.132;6.370;2023-12-28T12:33:16;31.23;;;5.38;;
51943;SDS011;37969;53.132;6.370;2023-12-28T12:35:42;32.40;;;5.63;;
51943;SDS011;37969;53.132;6.370;2023-12-28T12:38:10;37.60;;;6.38;;
51943;SDS011;37969;53.132;6.370;2023-12-28T12:40:36;45.05;;;6.60;;
51943;SDS011;37969;53.132;6.370;2023-12-28T12:43:03;41.55;;;6.28;;
51943;SDS011;37969;53.132;6.370;2023-12-28T12:45:29;43.95;;;7.07;;
51943;SDS011;37969;53.132;6.370;2023-12-28T12:47:57;37.80;;;5.50;;
51943;SDS011;37969;53.132;6.370;2023-12-28T12:50:23;32.72;;;6.10;;
51943;SDS011;37969;53.132;6.370;2023-12-28T12:52:51;39.85;;;6.20;;
51943;SDS011;37969;53.132;6.370;2023-12-28T12:55:20;34.47;;;5.53;;
51943;SDS011;37969;53.132;6.370;2023-12-28T12:57:50;29.50;;;4.45;;
51943;SDS011;37969;53.132;6.370;2023-12-28T13:00:21;29.98;;;5.18;;
51943;SDS011;37969;53.132;6.370;2023-12-28T13:02:49;33.60;;;5.40;;
51943;SDS011;37969;53.132;6.370;2023-12-28T13:05:18;28.50;;;4.97;;
51943;SDS011;37969;53.132;6.370;2023-12-28T13:07:45;37.35;;;5.88;;
51943;SDS011;37969;53.132;6.370;2023-12-28T13:10:14;34.03;;;5.80;;
51943;SDS011;37969;53.132;6.370;2023-12-28T13:12:43;32.00;;;6.00;;
51943;SDS011;37969;53.132;6.370;2023-12-28T13:15:10;30.02;;;4.85;;
51943;SDS011;37969;53.132;6.370;2023-12-28T13:17:37;31.50;;;6.63;;
51943;SDS011;37969;53.132;6.370;2023-12-28T13:20:04;31.73;;;7.28;;
51943;SDS011;37969;53.132;6.370;2023-12-28T13:22:31;25.75;;;5.85;;
51943;SDS011;37969;53.132;6.370;2023-12-28T13:24:59;23.70;;;5.05;;
51943;SDS011;37969;53.132;6.370;2023-12-28T13:27:29;34.35;;;6.45;;
51943;SDS011;37969;53.132;6.370;2023-12-28T13:29:56;30.83;;;5.50;;
51943;SDS011;37969;53.132;6.370;2023-12-28T13:32:22;36.70;;;5.70;;
51943;SDS011;37969;53.132;6.370;2023-12-28T13:34:54;26.60;;;4.72;;
51943;SDS011;37969;53.132;6.370;2023-12-28T13:37:21;29.88;;;4.88;;
51943;SDS011;37969;53.132;6.370;2023-12-28T13:39:47;35.47;;;5.75;;
51943;SDS011;37969;53.132;6.370;2023-12-28T13:42:14;29.38;;;4.60;;
51943;SDS011;37969;53.132;6.370;2023-12-28T13:44:42;26.58;;;4.85;;
51943;SDS011;37969;53.132;6.370;2023-12-28T13:47:08;35.03;;;5.10;;
51943;SDS011;37969;53.132;6.370;2023-12-28T13:49:35;32.08;;;4.55;;
51943;SDS011;37969;53.132;6.370;2023-12-28T13:52:05;30.38;;;4.28;;
51943;SDS011;37969;53.132;6.370;2023-12-28T13:54:35;25.17;;;4.22;;
51943;SDS011;37969;53.132;6.370;2023-12-28T13:57:03;27.90;;;4.88;;
51943;SDS011;37969;53.132;6.370;2023-12-28T13:59:30;33.75;;;5.32;;
51943;SDS011;37969;53.132;6.370;2023-12-28T14:01:57;33.95;;;5.40;;
51943;SDS011;37969;53.132;6.370;2023-12-28T14:04:24;34.42;;;5.20;;
51943;SDS011;37969;53.132;6.370;2023-12-28T14:06:51;31.25;;;6.47;;
51943;SDS011;37969;53.132;6.370;2023-12-28T14:09:22;33.85;;;5.47;;
51943;SDS011;37969;53.132;6.370;2023-12-28T14:11:48;37.13;;;5.63;;
51943;SDS011;37969;53.132;6.370;2023-12-28T14:14:14;33.10;;;4.68;;
51943;SDS011;37969;53.132;6.370;2023-12-28T14:16:41;25.40;;;4.90;;
51943;SDS011;37969;53.132;6.370;2023-12-28T14:19:11;33.42;;;5.43;;
51943;SDS011;37969;53.132;6.370;2023-12-28T14:21:37;35.45;;;5.20;;
51943;SDS011;37969;53.132;6.370;2023-12-28T14:24:08;33.25;;;5.05;;
51943;SDS011;37969;53.132;6.370;2023-12-28T14:26:34;37.03;;;5.97;;
51943;SDS011;37969;53.132;6.370;2023-12-28T14:29:08;40.42;;;5.47;;
51943;SDS011;37969;53.132;6.370;2023-12-28T14:31:36;33.95;;;5.05;;
51943;SDS011;37969;53.132;6.370;2023-12-28T14:34:05;33.92;;;5.43;;
51943;SDS011;37969;53.132;6.370;2023-12-28T14:36:35;36.65;;;5.13;;
51943;SDS011;37969;53.132;6.370;2023-12-28T14:41:31;26.98;;;4.78;;
51943;SDS011;37969;53.132;6.370;2023-12-28T14:44:00;37.25;;;4.75;;
51943;SDS011;37969;53.132;6.370;2023-12-28T14:46:26;38.88;;;5.30;;
51943;SDS011;37969;53.132;6.370;2023-12-28T14:48:55;29.20;;;5.33;;
51943;SDS011;37969;53.132;6.370;2023-12-28T14:51:22;37.20;;;6.15;;
51943;SDS011;37969;53.132;6.370;2023-12-28T14:53:53;39.10;;;6.22;;
51943;SDS011;37969;53.132;6.370;2023-12-28T14:56:20;29.98;;;4.70;;
51943;SDS011;37969;53.132;6.370;2023-12-28T14:58:49;37.45;;;5.55;;